sensor_id;sensor_type;location;lat;lon;timestamp;P1;durP1;ratioP1;P2;durP2;ratioP2
44126;SDS011;29786;50.798;7.302;2023-11-18T00:00:50;165.2;;;24.5;;
44126;SDS011;29786;50.798;7.302;2023-11-18T00:01:50;210.5;;;25.7;;
44126;SDS011;29786;50.798;7.302;2023-11-18T00:02:50;345.3;;;31.1;;
44126;SDS011;29786;50.798;7.302;2023-11-18T00:03:50;115.7;;;21.3;;
44126;SDS011;29786;50.798;7.302;2023-11-18T00:04:50;144.3;;;22.1;;
44126;SDS011;29786;50.798;7.302;2023-11-18T00:05:50;180.7;;;25.3;;
44126;SDS011;29786;50.798;7.302;2023-11-18T00:06:50;239.6;;;28.1;;
44126;SDS011;29786;50.798;7.302;2023-11-18T00:07:50;403.6;;;33.8;;
44126;SDS011;29786;50.798;7.302;2023-11-18T00:08:50;418.8;;;35.7;;
44126;SDS011;29786;50.798;7.302;2023-11-18T00:09:50;369.4;;;32.4;;
44126;SDS011;29786;50.798;7.302;2023-11-18T00:10:50;323.3;;;30.8;;
44126;SDS011;29786;50.798;7.302;2023-11-18T00:11:50;362;;;30.8;;
44126;SDS011;29786;50.798;7.302;2023-11-18T00:12:50;328.3;;;29.8;;
44126;SDS011;29786;50.798;7.302;2023-11-18T00:13:50;382.9;;;34.2;;
44126;SDS011;29786;50.798;7.302;2023-11-18T00:14:50;396.4;;;33.9;;
44126;SDS011;29786;50.798;7.302;2023-11-18T00:15:50;216.7;;;28.7;;
44126;SDS011;29786;50.798;7.302;2023-11-18T00:16:50;333.1;;;33.9;;
44126;SDS011;29786;50.798;7.302;2023-11-18T00:17:50;412.6;;;35.7;;
44126;SDS011;29786;50.798;7.302;2023-11-18T00:18:50;132.5;;;24.7;;
44126;SDS011;29786;50.798;7.302;2023-11-18T00:19:50;189.9;;;27.2;;
44126;SDS011;29786;50.798;7.302;2023-11-18T00:20:50;316.5;;;32.6;;
44126;SDS011;29786;50.798;7.302;2023-11-18T00:21:50;515.8;;;37.6;;
44126;SDS011;29786;50.798;7.302;2023-11-18T00:22:50;333.7;;;29.7;;
44126;SDS011;29786;50.798;7.302;2023-11-18T00:23:50;332.3;;;30.8;;
44126;SDS011;29786;50.798;7.302;2023-11-18T00:24:50;434;;;35.2;;
44126;SDS011;29786;50.798;7.302;2023-11-18T00:25:50;172.3;;;25.1;;
44126;SDS011;29786;50.798;7.302;2023-11-18T00:26:50;283;;;29.7;;
44126;SDS011;29786;50.798;7.302;2023-11-18T00:27:50;318.1;;;31.6;;
44126;SDS011;29786;50.798;7.302;2023-11-18T00:28:50;159.2;;;24.9;;
44126;SDS011;29786;50.798;7.302;2023-11-18T00:29:50;208.7;;;25.3;;
44126;SDS011;29786;50.798;7.302;2023-11-18T00:30:50;194.4;;;25.5;;
44126;SDS011;29786;50.798;7.302;2023-11-18T00:31:50;120.3;;;23.1;;
44126;SDS011;29786;50.798;7.302;2023-11-18T00:32:50;357.3;;;32.7;;
44126;SDS011;29786;50.798;7.302;2023-11-18T00:33:50;256;;;28.1;;
44126;SDS011;29786;50.798;7.302;2023-11-18T00:34:50;297.2;;;30.2;;
44126;SDS011;29786;50.798;7.302;2023-11-18T00:35:50;308.6;;;31.7;;
44126;SDS011;29786;50.798;7.302;2023-11-18T00:36:50;91.7;;;23.2;;
44126;SDS011;29786;50.798;7.302;2023-11-18T00:37:50;157.9;;;24.8;;
44126;SDS011;29786;50.798;7.302;2023-11-18T00:38:50;327.1;;;31;;
44126;SDS011;29786;50.798;7.302;2023-11-18T00:39:50;261.1;;;27.5;;
44126;SDS011;29786;50.798;7.302;2023-11-18T00:40:50;118;;;23.2;;
44126;SDS011;29786;50.798;7.302;2023-11-18T00:41:50;158.8;;;26.5;;
44126;SDS011;29786;50.798;7.302;2023-11-18T00:42:50;121.7;;;24.4;;
44126;SDS011;29786;50.798;7.302;2023-11-18T00:43:50;50.1;;;20.3;;
44126;SDS011;29786;50.798;7.302;2023-11-18T00:44:50;132.5;;;25.1;;
44126;SDS011;29786;50.798;7.302;2023-11-18T00:45:50;139.2;;;24.6;;
44126;SDS011;29786;50.798;7.302;2023-11-18T00:46:50;137.5;;;24.6;;
44126;SDS011;29786;50.798;7.302;2023-11-18T00:48:00;60.1;;;21.3;;
44126;SDS011;29786;50.798;7.302;2023-11-18T00:48:53;89.1;;;22.5;;
44126;SDS011;29786;50.798;7.302;2023-11-18T00:49:50;122.6;;;23.7;;
44126;SDS011;29786;50.798;7.302;2023-11-18T00:50:50;121;;;23.8;;
44126;SDS011;29786;50.798;7.302;2023-11-18T00:51:50;103.9;;;22.8;;
44126;SDS011;29786;50.798;7.302;2023-11-18T00:52:50;55.8;;;19.8;;
44126;SDS011;29786;50.798;7.302;2023-11-18T00:53:50;65.1;;;20.6;;
44126;SDS011;29786;50.798;7.302;2023-11-18T00:54:50;65.6;;;21;;
44126;SDS011;29786;50.798;7.302;2023-11-18T00:55:50;58.6;;;18.9;;
44126;SDS011;29786;50.798;7.302;2023-11-18T00:56:50;67.4;;;20.2;;
44126;SDS011;29786;50.798;7.302;2023-11-18T00:57:50;69.5;;;21.2;;
44126;SDS011;29786;50.798;7.302;2023-11-18T00:58:50;84.4;;;22.3;;
44126;SDS011;29786;50.798;7.302;2023-11-18T00:59:50;83.5;;;21;;
44126;SDS011;29786;50.798;7.302;2023-11-18T01:00:50;111.2;;;22.8;;
44126;SDS011;29786;50.798;7.302;2023-11-18T01:01:50;52.3;;;20.1;;
44126;SDS011;29786;50.798;7.302;2023-11-18T01:02:50;107.7;;;22;;
44126;SDS011;29786;50.798;7.302;2023-11-18T01:03:50;66.5;;;20.3;;
44126;SDS011;29786;50.798;7.302;2023-11-18T01:04:50;66.1;;;20.3;;
44126;SDS011;29786;50.798;7.302;2023-11-18T01:05:50;97.3;;;21.5;;
44126;SDS011;29786;50.798;7.302;2023-11-18T01:06:50;122.4;;;22.3;;
44126;SDS011;29786;50.798;7.302;2023-11-18T01:07:50;104.7;;;22;;
44126;SDS011;29786;50.798;7.302;2023-11-18T01:08:50;105.1;;;23.2;;
44126;SDS011;29786;50.798;7.302;2023-11-18T01:09:50;119.8;;;23.4;;
44126;SDS011;29786;50.798;7.302;2023-11-18T01:10:50;125;;;24.5;;
44126;SDS011;29786;50.798;7.302;2023-11-18T01:11:50;67.2;;;21.6;;
44126;SDS011;29786;50.798;7.302;2023-11-18T01:12:50;62.8;;;20.3;;
44126;SDS011;29786;50.798;7.302;2023-11-18T01:13:50;107.5;;;23.7;;
44126;SDS011;29786;50.798;7.302;2023-11-18T01:14:50;67.5;;;20.1;;
44126;SDS011;29786;50.798;7.302;2023-11-18T01:15:50;50.6;;;20.1;;
44126;SDS011;29786;50.798;7.302;2023-11-18T01:16:50;73;;;22;;
44126;SDS011;29786;50.798;7.302;2023-11-18T01:17:50;95.3;;;22.3;;
44126;SDS011;29786;50.798;7.302;2023-11-18T01:18:50;54.1;;;22.3;;
44126;SDS011;29786;50.798;7.302;2023-11-18T01:19:50;63.5;;;21.6;;
44126;SDS011;29786;50.798;7.302;2023-11-18T01:20:50;70.5;;;20.8;;
44126;SDS011;29786;50.798;7.302;2023-11-18T01:21:50;60.3;;;21.3;;
44126;SDS011;29786;50.798;7.302;2023-11-18T01:22:50;71.8;;;22.9;;
44126;SDS011;29786;50.798;7.302;2023-11-18T01:23:50;70.4;;;21.6;;
44126;SDS011;29786;50.798;7.302;2023-11-18T01:24:50;53.8;;;20.8;;
44126;SDS011;29786;50.798;7.302;2023-11-18T01:25:50;60.5;;;21.3;;
44126;SDS011;29786;50.798;7.302;2023-11-18T01:26:50;93.9;;;23.6;;
44126;SDS011;29786;50.798;7.302;2023-11-18T01:27:50;54.7;;;20.7;;
44126;SDS011;29786;50.798;7.302;2023-11-18T01:28:50;65.9;;;21.4;;
44126;SDS011;29786;50.798;7.302;2023-11-18T01:29:50;56.6;;;21.6;;
44126;SDS011;29786;50.798;7.302;2023-11-18T01:30:50;60.9;;;22.1;;
44126;SDS011;29786;50.798;7.302;2023-11-18T01:31:50;43.4;;;19.9;;
44126;SDS011;29786;50.798;7.302;2023-11-18T01:32:50;53.9;;;21.8;;
44126;SDS011;29786;50.798;7.302;2023-11-18T01:33:50;47.9;;;21;;
44126;SDS011;29786;50.798;7.302;2023-11-18T01:34:50;54;;;20.3;;
44126;SDS011;29786;50.798;7.302;2023-11-18T01:35:50;50.9;;;20.8;;
44126;SDS011;29786;50.798;7.302;2023-11-18T01:36:50;59.5;;;21.8;;
44126;SDS011;29786;50.798;7.302;2023-11-18T01:37:50;48.3;;;20.8;;
44126;SDS011;29786;50.798;7.302;2023-11-18T01:38:50;52.1;;;20.8;;
44126;SDS011;29786;50.798;7.302;2023-11-18T01:39:50;43.8;;;19.7;;
44126;SDS011;29786;50.798;7.302;2023-11-18T01:40:50;45.2;;;20.2;;
44126;SDS011;29786;50.798;7.302;2023-11-18T01:41:50;47.4;;;20.3;;
44126;SDS011;29786;50.798;7.302;2023-11-18T01:42:50;43.6;;;19.9;;
44126;SDS011;29786;50.798;7.302;2023-11-18T01:43:50;48.3;;;21.8;;
44126;SDS011;29786;50.798;7.302;2023-11-18T01:44:50;41.8;;;19.6;;
44126;SDS011;29786;50.798;7.302;2023-11-18T01:45:50;43.4;;;20.3;;
44126;SDS011;29786;50.798;7.302;2023-11-18T01:46:50;39.4;;;18.4;;
44126;SDS011;29786;50.798;7.302;2023-11-18T01:47:50;45.7;;;20;;
44126;SDS011;29786;50.798;7.302;2023-11-18T01:48:50;38.8;;;19.8;;
44126;SDS011;29786;50.798;7.302;2023-11-18T01:49:50;41.6;;;19.8;;
44126;SDS011;29786;50.798;7.302;2023-11-18T01:50:50;41.4;;;19.7;;
44126;SDS011;29786;50.798;7.302;2023-11-18T01:51:50;37.3;;;18.5;;
44126;SDS011;29786;50.798;7.302;2023-11-18T01:52:50;36;;;18.4;;
44126;SDS011;29786;50.798;7.302;2023-11-18T01:53:50;41.4;;;19.8;;
44126;SDS011;29786;50.798;7.302;2023-11-18T01:54:50;38.1;;;18.2;;
44126;SDS011;29786;50.798;7.302;2023-11-18T01:55:50;40.1;;;19.3;;
44126;SDS011;29786;50.798;7.302;2023-11-18T01:56:50;36.4;;;18.3;;
44126;SDS011;29786;50.798;7.302;2023-11-18T01:57:50;37.2;;;18.9;;
44126;SDS011;29786;50.798;7.302;2023-11-18T01:58:50;42.9;;;19;;
44126;SDS011;29786;50.798;7.302;2023-11-18T01:59:50;39;;;17.6;;
44126;SDS011;29786;50.798;7.302;2023-11-18T02:00:50;39.4;;;18.5;;
44126;SDS011;29786;50.798;7.302;2023-11-18T02:01:51;38.2;;;18.8;;
44126;SDS011;29786;50.798;7.302;2023-11-18T02:02:50;37.4;;;18.7;;
44126;SDS011;29786;50.798;7.302;2023-11-18T02:03:50;36;;;17.9;;
44126;SDS011;29786;50.798;7.302;2023-11-18T02:04:50;42.2;;;18.1;;
44126;SDS011;29786;50.798;7.302;2023-11-18T02:05:50;42.8;;;18.9;;
44126;SDS011;29786;50.798;7.302;2023-11-18T02:06:50;36.3;;;18.9;;
44126;SDS011;29786;50.798;7.302;2023-11-18T02:07:50;40.4;;;18.8;;
44126;SDS011;29786;50.798;7.302;2023-11-18T02:08:50;38.4;;;18.3;;
44126;SDS011;29786;50.798;7.302;2023-11-18T02:09:50;44.2;;;19.3;;
44126;SDS011;29786;50.798;7.302;2023-11-18T02:10:54;45;;;20.4;;
44126;SDS011;29786;50.798;7.302;2023-11-18T02:11:53;37.7;;;18.8;;
44126;SDS011;29786;50.798;7.302;2023-11-18T02:12:52;37.9;;;19.1;;
44126;SDS011;29786;50.798;7.302;2023-11-18T02:13:50;40.1;;;19;;
44126;SDS011;29786;50.798;7.302;2023-11-18T02:14:50;43.1;;;18.9;;
44126;SDS011;29786;50.798;7.302;2023-11-18T02:15:52;37.3;;;18.8;;
44126;SDS011;29786;50.798;7.302;2023-11-18T02:16:50;42.2;;;19.3;;
44126;SDS011;29786;50.798;7.302;2023-11-18T02:17:50;39.9;;;19.3;;
44126;SDS011;29786;50.798;7.302;2023-11-18T02:18:50;37;;;18.9;;
44126;SDS011;29786;50.798;7.302;2023-11-18T02:19:52;44.7;;;18.9;;
44126;SDS011;29786;50.798;7.302;2023-11-18T02:20:50;34.5;;;16.5;;
44126;SDS011;29786;50.798;7.302;2023-11-18T02:21:50;43.7;;;19.8;;
44126;SDS011;29786;50.798;7.302;2023-11-18T02:22:50;43.5;;;20.4;;
44126;SDS011;29786;50.798;7.302;2023-11-18T02:23:50;38.6;;;19.2;;
44126;SDS011;29786;50.798;7.302;2023-11-18T02:24:50;46.2;;;19.9;;
44126;SDS011;29786;50.798;7.302;2023-11-18T02:25:50;41.8;;;19.1;;
44126;SDS011;29786;50.798;7.302;2023-11-18T02:26:50;37;;;18.4;;
44126;SDS011;29786;50.798;7.302;2023-11-18T02:27:50;43.6;;;20;;
44126;SDS011;29786;50.798;7.302;2023-11-18T02:28:50;38.8;;;18.4;;
44126;SDS011;29786;50.798;7.302;2023-11-18T02:29:50;41.3;;;18.8;;
44126;SDS011;29786;50.798;7.302;2023-11-18T02:30:50;42.2;;;19.3;;
44126;SDS011;29786;50.798;7.302;2023-11-18T02:31:50;42.9;;;20;;
44126;SDS011;29786;50.798;7.302;2023-11-18T02:32:58;41.8;;;20;;
44126;SDS011;29786;50.798;7.302;2023-11-18T02:34:00;40.5;;;19.3;;
44126;SDS011;29786;50.798;7.302;2023-11-18T02:34:53;42.8;;;19.6;;
44126;SDS011;29786;50.798;7.302;2023-11-18T02:35:51;38.4;;;19.7;;
44126;SDS011;29786;50.798;7.302;2023-11-18T02:36:50;45.4;;;20.8;;
44126;SDS011;29786;50.798;7.302;2023-11-18T02:37:50;44;;;20.6;;
44126;SDS011;29786;50.798;7.302;2023-11-18T02:38:50;39.5;;;19.1;;
44126;SDS011;29786;50.798;7.302;2023-11-18T02:39:51;39.5;;;19.9;;
44126;SDS011;29786;50.798;7.302;2023-11-18T02:40:50;40.1;;;19;;
44126;SDS011;29786;50.798;7.302;2023-11-18T02:41:51;38.8;;;18.2;;
44126;SDS011;29786;50.798;7.302;2023-11-18T02:42:50;38.6;;;19.5;;
44126;SDS011;29786;50.798;7.302;2023-11-18T02:43:50;37.7;;;19.3;;
44126;SDS011;29786;50.798;7.302;2023-11-18T02:44:50;46.7;;;19.7;;
44126;SDS011;29786;50.798;7.302;2023-11-18T02:45:50;38;;;19.9;;
44126;SDS011;29786;50.798;7.302;2023-11-18T02:46:50;40.7;;;19.7;;
44126;SDS011;29786;50.798;7.302;2023-11-18T02:47:50;34.5;;;19.2;;
44126;SDS011;29786;50.798;7.302;2023-11-18T02:48:50;39.2;;;18.9;;
44126;SDS011;29786;50.798;7.302;2023-11-18T02:49:53;34.2;;;18.6;;
44126;SDS011;29786;50.798;7.302;2023-11-18T02:50:50;42.7;;;19.2;;
44126;SDS011;29786;50.798;7.302;2023-11-18T02:51:50;35.5;;;18.7;;
44126;SDS011;29786;50.798;7.302;2023-11-18T02:52:50;35.4;;;18.5;;
44126;SDS011;29786;50.798;7.302;2023-11-18T02:53:50;32.9;;;18;;
44126;SDS011;29786;50.798;7.302;2023-11-18T02:54:50;36.4;;;18.5;;
44126;SDS011;29786;50.798;7.302;2023-11-18T02:55:50;35.7;;;18.1;;
44126;SDS011;29786;50.798;7.302;2023-11-18T02:56:50;38.5;;;19.5;;
44126;SDS011;29786;50.798;7.302;2023-11-18T02:57:50;37.2;;;18.3;;
44126;SDS011;29786;50.798;7.302;2023-11-18T02:58:50;36.4;;;18.7;;
44126;SDS011;29786;50.798;7.302;2023-11-18T02:59:50;35;;;18.8;;
44126;SDS011;29786;50.798;7.302;2023-11-18T03:00:50;36.5;;;18.6;;
44126;SDS011;29786;50.798;7.302;2023-11-18T03:01:53;36.9;;;18.4;;
44126;SDS011;29786;50.798;7.302;2023-11-18T03:02:51;35.5;;;18.6;;
44126;SDS011;29786;50.798;7.302;2023-11-18T03:03:50;37.2;;;19.1;;
44126;SDS011;29786;50.798;7.302;2023-11-18T03:04:50;34.7;;;18.2;;
44126;SDS011;29786;50.798;7.302;2023-11-18T03:05:50;33.1;;;17.6;;
44126;SDS011;29786;50.798;7.302;2023-11-18T03:06:50;32.2;;;17;;
44126;SDS011;29786;50.798;7.302;2023-11-18T03:07:50;36.5;;;18.2;;
44126;SDS011;29786;50.798;7.302;2023-11-18T03:08:50;35.3;;;18.8;;
44126;SDS011;29786;50.798;7.302;2023-11-18T03:09:50;34;;;18.6;;
44126;SDS011;29786;50.798;7.302;2023-11-18T03:10:50;37.1;;;18.2;;
44126;SDS011;29786;50.798;7.302;2023-11-18T03:11:50;35;;;18.4;;
44126;SDS011;29786;50.798;7.302;2023-11-18T03:12:50;40.5;;;20;;
44126;SDS011;29786;50.798;7.302;2023-11-18T03:13:50;33.5;;;17.9;;
44126;SDS011;29786;50.798;7.302;2023-11-18T03:14:50;36.2;;;18.7;;
44126;SDS011;29786;50.798;7.302;2023-11-18T03:15:50;37;;;19.1;;
44126;SDS011;29786;50.798;7.302;2023-11-18T03:16:50;41.6;;;20.2;;
44126;SDS011;29786;50.798;7.302;2023-11-18T03:17:50;32.5;;;17.5;;
44126;SDS011;29786;50.798;7.302;2023-11-18T03:18:50;34.3;;;18.1;;
44126;SDS011;29786;50.798;7.302;2023-11-18T03:19:50;29.6;;;17.3;;
44126;SDS011;29786;50.798;7.302;2023-11-18T03:20:50;33.3;;;19;;
44126;SDS011;29786;50.798;7.302;2023-11-18T03:21:50;33.7;;;18;;
44126;SDS011;29786;50.798;7.302;2023-11-18T03:22:50;31.3;;;17.2;;
44126;SDS011;29786;50.798;7.302;2023-11-18T03:23:50;35.8;;;18.4;;
44126;SDS011;29786;50.798;7.302;2023-11-18T03:24:50;33.4;;;17.7;;
44126;SDS011;29786;50.798;7.302;2023-11-18T03:25:50;34.8;;;18.5;;
44126;SDS011;29786;50.798;7.302;2023-11-18T03:26:50;31.7;;;17.6;;
44126;SDS011;29786;50.798;7.302;2023-11-18T03:27:50;31.1;;;17.4;;
44126;SDS011;29786;50.798;7.302;2023-11-18T03:28:50;35.6;;;18.8;;
44126;SDS011;29786;50.798;7.302;2023-11-18T03:29:50;33.5;;;17.6;;
44126;SDS011;29786;50.798;7.302;2023-11-18T03:30:50;31.1;;;17.6;;
44126;SDS011;29786;50.798;7.302;2023-11-18T03:31:50;31.6;;;17.2;;
44126;SDS011;29786;50.798;7.302;2023-11-18T03:33:50;37.9;;;17.8;;
44126;SDS011;29786;50.798;7.302;2023-11-18T03:34:50;33.7;;;18.1;;
44126;SDS011;29786;50.798;7.302;2023-11-18T03:35:50;34;;;18.1;;
44126;SDS011;29786;50.798;7.302;2023-11-18T03:36:50;34.9;;;18.2;;
44126;SDS011;29786;50.798;7.302;2023-11-18T03:37:50;32.9;;;17.1;;
44126;SDS011;29786;50.798;7.302;2023-11-18T03:38:50;34.4;;;17.8;;
44126;SDS011;29786;50.798;7.302;2023-11-18T03:39:50;31.6;;;17.7;;
44126;SDS011;29786;50.798;7.302;2023-11-18T03:40:50;30.8;;;18;;
44126;SDS011;29786;50.798;7.302;2023-11-18T03:41:50;35;;;16.7;;
44126;SDS011;29786;50.798;7.302;2023-11-18T03:42:50;35.5;;;17.7;;
44126;SDS011;29786;50.798;7.302;2023-11-18T03:43:50;31;;;17.8;;
44126;SDS011;29786;50.798;7.302;2023-11-18T03:44:50;37;;;19.3;;
44126;SDS011;29786;50.798;7.302;2023-11-18T03:45:50;30.6;;;17;;
44126;SDS011;29786;50.798;7.302;2023-11-18T03:46:50;32.9;;;18;;
44126;SDS011;29786;50.798;7.302;2023-11-18T03:47:50;33.4;;;18.1;;
44126;SDS011;29786;50.798;7.302;2023-11-18T03:48:50;32;;;18.3;;
44126;SDS011;29786;50.798;7.302;2023-11-18T03:49:50;33.5;;;17.9;;
44126;SDS011;29786;50.798;7.302;2023-11-18T03:50:50;29.9;;;17.4;;
44126;SDS011;29786;50.798;7.302;2023-11-18T03:51:50;36.6;;;18.6;;
44126;SDS011;29786;50.798;7.302;2023-11-18T03:52:50;33.5;;;17.3;;
44126;SDS011;29786;50.798;7.302;2023-11-18T03:53:50;35.4;;;17.4;;
44126;SDS011;29786;50.798;7.302;2023-11-18T03:54:50;35.2;;;18.4;;
44126;SDS011;29786;50.798;7.302;2023-11-18T03:55:50;29.6;;;16.5;;
44126;SDS011;29786;50.798;7.302;2023-11-18T03:56:50;33;;;18;;
44126;SDS011;29786;50.798;7.302;2023-11-18T03:57:50;34;;;17.5;;
44126;SDS011;29786;50.798;7.302;2023-11-18T03:58:50;38;;;18.5;;
44126;SDS011;29786;50.798;7.302;2023-11-18T03:59:50;34.8;;;18.2;;
44126;SDS011;29786;50.798;7.302;2023-11-18T04:00:50;32.8;;;17.6;;
44126;SDS011;29786;50.798;7.302;2023-11-18T04:01:50;35;;;18.5;;
44126;SDS011;29786;50.798;7.302;2023-11-18T04:02:50;36.7;;;19.2;;
44126;SDS011;29786;50.798;7.302;2023-11-18T04:03:50;33.6;;;18.3;;
44126;SDS011;29786;50.798;7.302;2023-11-18T04:04:50;36.5;;;19.2;;
44126;SDS011;29786;50.798;7.302;2023-11-18T04:05:50;34.7;;;18.3;;
44126;SDS011;29786;50.798;7.302;2023-11-18T04:06:50;35.1;;;19.5;;
44126;SDS011;29786;50.798;7.302;2023-11-18T04:07:50;34.7;;;19.7;;
44126;SDS011;29786;50.798;7.302;2023-11-18T04:08:50;33.1;;;17.9;;
44126;SDS011;29786;50.798;7.302;2023-11-18T04:09:50;33.2;;;19.1;;
44126;SDS011;29786;50.798;7.302;2023-11-18T04:10:50;42.1;;;19.6;;
44126;SDS011;29786;50.798;7.302;2023-11-18T04:11:50;32.6;;;18.2;;
44126;SDS011;29786;50.798;7.302;2023-11-18T04:12:50;37;;;19.2;;
44126;SDS011;29786;50.798;7.302;2023-11-18T04:13:50;32.9;;;18.8;;
44126;SDS011;29786;50.798;7.302;2023-11-18T04:14:50;37.3;;;19.6;;
44126;SDS011;29786;50.798;7.302;2023-11-18T04:15:50;37.4;;;19.9;;
44126;SDS011;29786;50.798;7.302;2023-11-18T04:16:50;38.1;;;18.9;;
44126;SDS011;29786;50.798;7.302;2023-11-18T04:17:50;36.9;;;19.5;;
44126;SDS011;29786;50.798;7.302;2023-11-18T04:18:50;37.5;;;20;;
44126;SDS011;29786;50.798;7.302;2023-11-18T04:19:50;33.7;;;18.7;;
44126;SDS011;29786;50.798;7.302;2023-11-18T04:20:50;39;;;19.6;;
44126;SDS011;29786;50.798;7.302;2023-11-18T04:21:50;36.6;;;19.5;;
44126;SDS011;29786;50.798;7.302;2023-11-18T04:22:50;36.4;;;18.7;;
44126;SDS011;29786;50.798;7.302;2023-11-18T04:23:50;35.5;;;18.1;;
44126;SDS011;29786;50.798;7.302;2023-11-18T04:24:50;39.9;;;20;;
44126;SDS011;29786;50.798;7.302;2023-11-18T04:25:50;33.6;;;18.9;;
44126;SDS011;29786;50.798;7.302;2023-11-18T04:26:50;33.3;;;17.9;;
44126;SDS011;29786;50.798;7.302;2023-11-18T04:27:50;34.9;;;18;;
44126;SDS011;29786;50.798;7.302;2023-11-18T04:28:50;34.7;;;19;;
44126;SDS011;29786;50.798;7.302;2023-11-18T04:29:50;34.9;;;18.3;;
44126;SDS011;29786;50.798;7.302;2023-11-18T04:30:50;33.2;;;18.5;;
44126;SDS011;29786;50.798;7.302;2023-11-18T04:31:50;35.8;;;18.4;;
44126;SDS011;29786;50.798;7.302;2023-11-18T04:32:50;34.8;;;19;;
44126;SDS011;29786;50.798;7.302;2023-11-18T04:33:50;32.5;;;18.2;;
44126;SDS011;29786;50.798;7.302;2023-11-18T04:34:50;34.2;;;17.3;;
44126;SDS011;29786;50.798;7.302;2023-11-18T04:35:50;36.2;;;19.1;;
44126;SDS011;29786;50.798;7.302;2023-11-18T04:36:50;35.3;;;18.8;;
44126;SDS011;29786;50.798;7.302;2023-11-18T04:37:50;36.4;;;18.1;;
44126;SDS011;29786;50.798;7.302;2023-11-18T04:38:50;31.9;;;17.9;;
44126;SDS011;29786;50.798;7.302;2023-11-18T04:39:50;32.4;;;17.4;;
44126;SDS011;29786;50.798;7.302;2023-11-18T04:40:50;33;;;18.2;;
44126;SDS011;29786;50.798;7.302;2023-11-18T04:41:50;35.7;;;18.8;;
44126;SDS011;29786;50.798;7.302;2023-11-18T04:42:50;35.3;;;18.4;;
44126;SDS011;29786;50.798;7.302;2023-11-18T04:43:50;37;;;19;;
44126;SDS011;29786;50.798;7.302;2023-11-18T04:44:50;34;;;18.4;;
44126;SDS011;29786;50.798;7.302;2023-11-18T04:45:50;34.8;;;17.8;;
44126;SDS011;29786;50.798;7.302;2023-11-18T04:46:50;33.9;;;17.9;;
44126;SDS011;29786;50.798;7.302;2023-11-18T04:47:50;39.4;;;20;;
44126;SDS011;29786;50.798;7.302;2023-11-18T04:48:50;38.7;;;19.4;;
44126;SDS011;29786;50.798;7.302;2023-11-18T04:49:50;40.1;;;19.5;;
44126;SDS011;29786;50.798;7.302;2023-11-18T04:50:50;37.8;;;19.5;;
44126;SDS011;29786;50.798;7.302;2023-11-18T04:51:50;33.2;;;18.4;;
44126;SDS011;29786;50.798;7.302;2023-11-18T04:52:50;32.2;;;17.7;;
44126;SDS011;29786;50.798;7.302;2023-11-18T04:53:50;37.5;;;19;;
44126;SDS011;29786;50.798;7.302;2023-11-18T04:54:50;38.2;;;19.6;;
44126;SDS011;29786;50.798;7.302;2023-11-18T04:55:50;36.5;;;19.3;;
44126;SDS011;29786;50.798;7.302;2023-11-18T04:56:50;36.8;;;18.6;;
44126;SDS011;29786;50.798;7.302;2023-11-18T04:57:50;37.3;;;19.2;;
44126;SDS011;29786;50.798;7.302;2023-11-18T04:58:50;37.5;;;18.9;;
44126;SDS011;29786;50.798;7.302;2023-11-18T04:59:50;35.5;;;19.2;;
44126;SDS011;29786;50.798;7.302;2023-11-18T05:00:50;36.5;;;19.1;;
44126;SDS011;29786;50.798;7.302;2023-11-18T05:01:50;38.3;;;20.1;;
44126;SDS011;29786;50.798;7.302;2023-11-18T05:02:50;39.5;;;19.5;;
44126;SDS011;29786;50.798;7.302;2023-11-18T05:03:50;35.3;;;18.1;;
44126;SDS011;29786;50.798;7.302;2023-11-18T05:04:50;36.7;;;18.4;;
44126;SDS011;29786;50.798;7.302;2023-11-18T05:05:50;35.3;;;18.1;;
44126;SDS011;29786;50.798;7.302;2023-11-18T05:06:50;37.2;;;18.5;;
44126;SDS011;29786;50.798;7.302;2023-11-18T05:07:50;37.1;;;20;;
44126;SDS011;29786;50.798;7.302;2023-11-18T05:08:50;39.2;;;19.5;;
44126;SDS011;29786;50.798;7.302;2023-11-18T05:09:50;41.2;;;20.6;;
44126;SDS011;29786;50.798;7.302;2023-11-18T05:10:50;35.8;;;18.7;;
44126;SDS011;29786;50.798;7.302;2023-11-18T05:11:50;41.4;;;20;;
44126;SDS011;29786;50.798;7.302;2023-11-18T05:12:50;38.9;;;19.7;;
44126;SDS011;29786;50.798;7.302;2023-11-18T05:13:50;37.9;;;19.7;;
44126;SDS011;29786;50.798;7.302;2023-11-18T05:14:50;34.1;;;19.5;;
44126;SDS011;29786;50.798;7.302;2023-11-18T05:15:50;37.4;;;19;;
44126;SDS011;29786;50.798;7.302;2023-11-18T05:16:50;39.3;;;19.7;;
44126;SDS011;29786;50.798;7.302;2023-11-18T05:17:51;40.1;;;19.2;;
44126;SDS011;29786;50.798;7.302;2023-11-18T05:18:50;38;;;19.9;;
44126;SDS011;29786;50.798;7.302;2023-11-18T05:19:50;39.4;;;19.4;;
44126;SDS011;29786;50.798;7.302;2023-11-18T05:20:50;39;;;19.2;;
44126;SDS011;29786;50.798;7.302;2023-11-18T05:21:50;35.7;;;18.7;;
44126;SDS011;29786;50.798;7.302;2023-11-18T05:22:50;37.1;;;20.2;;
44126;SDS011;29786;50.798;7.302;2023-11-18T05:23:50;36.9;;;18.9;;
44126;SDS011;29786;50.798;7.302;2023-11-18T05:24:50;38.1;;;19.7;;
44126;SDS011;29786;50.798;7.302;2023-11-18T05:25:50;40.9;;;20.3;;
44126;SDS011;29786;50.798;7.302;2023-11-18T05:26:50;37.5;;;19.2;;
44126;SDS011;29786;50.798;7.302;2023-11-18T05:27:50;39.9;;;19.9;;
44126;SDS011;29786;50.798;7.302;2023-11-18T05:28:50;37.7;;;19.8;;
44126;SDS011;29786;50.798;7.302;2023-11-18T05:29:50;35.8;;;19.2;;
44126;SDS011;29786;50.798;7.302;2023-11-18T05:30:50;38;;;19.7;;
44126;SDS011;29786;50.798;7.302;2023-11-18T05:31:50;35;;;19.4;;
44126;SDS011;29786;50.798;7.302;2023-11-18T05:32:50;35.7;;;18.9;;
44126;SDS011;29786;50.798;7.302;2023-11-18T05:33:50;34.5;;;17.8;;
44126;SDS011;29786;50.798;7.302;2023-11-18T05:34:50;37.7;;;20.3;;
44126;SDS011;29786;50.798;7.302;2023-11-18T05:35:50;33.7;;;19.1;;
44126;SDS011;29786;50.798;7.302;2023-11-18T05:36:50;37.9;;;19.5;;
44126;SDS011;29786;50.798;7.302;2023-11-18T05:37:50;36.2;;;19.1;;
44126;SDS011;29786;50.798;7.302;2023-11-18T05:38:50;36.5;;;19.7;;
44126;SDS011;29786;50.798;7.302;2023-11-18T05:39:50;36;;;19.1;;
44126;SDS011;29786;50.798;7.302;2023-11-18T05:40:50;32.6;;;18.5;;
44126;SDS011;29786;50.798;7.302;2023-11-18T05:41:50;34.1;;;18.6;;
44126;SDS011;29786;50.798;7.302;2023-11-18T05:42:50;34.1;;;19;;
44126;SDS011;29786;50.798;7.302;2023-11-18T05:43:50;36.7;;;19.3;;
44126;SDS011;29786;50.798;7.302;2023-11-18T05:44:50;38.3;;;19.1;;
44126;SDS011;29786;50.798;7.302;2023-11-18T05:45:50;35.8;;;19;;
44126;SDS011;29786;50.798;7.302;2023-11-18T05:46:50;37.8;;;20.7;;
44126;SDS011;29786;50.798;7.302;2023-11-18T05:47:50;36.7;;;19.3;;
44126;SDS011;29786;50.798;7.302;2023-11-18T05:48:50;38.3;;;20;;
44126;SDS011;29786;50.798;7.302;2023-11-18T05:49:50;36.5;;;19.3;;
44126;SDS011;29786;50.798;7.302;2023-11-18T05:50:50;36.7;;;19.7;;
44126;SDS011;29786;50.798;7.302;2023-11-18T05:51:50;35.5;;;19.2;;
44126;SDS011;29786;50.798;7.302;2023-11-18T05:52:50;35.7;;;18.4;;
44126;SDS011;29786;50.798;7.302;2023-11-18T05:53:50;36.8;;;19.4;;
44126;SDS011;29786;50.798;7.302;2023-11-18T05:54:50;34.9;;;18.3;;
44126;SDS011;29786;50.798;7.302;2023-11-18T05:55:50;39.7;;;19.7;;
44126;SDS011;29786;50.798;7.302;2023-11-18T05:56:50;36;;;18.1;;
44126;SDS011;29786;50.798;7.302;2023-11-18T05:57:50;36;;;19.3;;
44126;SDS011;29786;50.798;7.302;2023-11-18T05:58:50;34.2;;;18.3;;
44126;SDS011;29786;50.798;7.302;2023-11-18T05:59:50;37.8;;;19.7;;
44126;SDS011;29786;50.798;7.302;2023-11-18T06:00:50;37.6;;;19.3;;
44126;SDS011;29786;50.798;7.302;2023-11-18T06:01:50;40.2;;;19.1;;
44126;SDS011;29786;50.798;7.302;2023-11-18T06:02:50;37.2;;;20.1;;
44126;SDS011;29786;50.798;7.302;2023-11-18T06:03:50;35.4;;;19.1;;